createdAt,value
2022-11-17T00:01:11.393Z,99944.97
2022-11-17T00:03:44.353Z,99943.03
2022-11-17T00:06:16.131Z,99944.16
2022-11-17T00:08:53.889Z,99938.94
2022-11-17T00:11:23.440Z,99937.34
2022-11-17T00:14:13.236Z,99935.31
2022-11-17T00:16:43.135Z,99923.44
2022-11-17T00:19:32.532Z,99918.41
2022-11-17T00:22:01.902Z,99915.38
2022-11-17T00:24:31.226Z,99914.75
2022-11-17T00:27:02.490Z,99914.75
2022-11-17T00:29:31.929Z,99901.59
2022-11-17T00:32:19.565Z,99909.00
2022-11-17T00:34:49.171Z,99902.63
2022-11-17T00:37:18.483Z,99895.59
2022-11-17T00:39:46.884Z,99901.88
2022-11-17T00:42:16.910Z,99891.88
2022-11-17T00:44:48.793Z,99902.16
2022-11-17T00:47:20.637Z,99889.41
2022-11-17T00:49:53.910Z,99884.22
2022-11-17T00:52:27.174Z,99885.13
2022-11-17T00:55:00.573Z,99884.47
2022-11-17T00:57:34.070Z,99891.88
2022-11-17T01:00:03.438Z,99879.50
2022-11-17T01:02:36.563Z,99879.50
2022-11-17T01:05:07.802Z,99878.59
2022-11-17T01:07:38.729Z,99886.75
2022-11-17T01:10:10.233Z,99880.16
2022-11-17T01:12:48.473Z,99882.03
2022-11-17T01:15:17.062Z,99877.47
2022-11-17T01:17:46.367Z,99884.72
2022-11-17T01:20:15.232Z,99883.69
2022-11-17T01:22:44.348Z,99885.34
2022-11-17T01:25:13.920Z,99891.50
2022-11-17T01:33:16.126Z,99889.31
2022-11-17T01:35:44.292Z,99888.13
2022-11-17T01:38:12.437Z,99891.63
2022-11-17T01:40:42.449Z,99884.47
2022-11-17T01:43:24.200Z,99883.97
2022-11-17T01:45:54.593Z,99880.25
2022-11-17T01:48:34.139Z,99890.22
2022-11-17T01:51:04.795Z,99892.94
2022-11-17T01:53:35.887Z,99875.00
2022-11-17T01:56:11.937Z,99878.13
2022-11-17T01:58:55.228Z,99875.34
2022-11-17T02:01:24.375Z,99882.03
2022-11-17T02:03:56.391Z,99878.31
2022-11-17T02:06:37.500Z,99884.06
2022-11-17T02:09:11.722Z,99881.63
2022-11-17T02:11:49.411Z,99878.47
2022-11-17T02:14:18.758Z,99877.84
2022-11-17T02:16:48.628Z,99869.88
2022-11-17T02:19:18.885Z,99865.34
2022-11-17T02:25:09.892Z,99870.41
2022-11-17T02:28:19.143Z,99878.31
2022-11-17T02:31:20.890Z,99867.97
2022-11-17T02:34:13.297Z,99870.47
2022-11-17T02:37:22.916Z,99867.34
2022-11-17T02:40:22.325Z,99859.63
2022-11-17T02:43:24.803Z,99860.34
2022-11-17T02:46:09.933Z,99864.03
2022-11-17T02:48:45.801Z,99858.13
2022-11-17T02:51:30.434Z,99858.88
2022-11-17T02:54:07.971Z,99854.22
2022-11-17T02:56:45.944Z,99840.94
2022-11-17T02:59:20.494Z,99845.91
2022-11-17T03:02:27.574Z,99847.84
2022-11-17T03:05:50.395Z,99848.84
2022-11-17T03:08:56.934Z,99845.47
2022-11-17T03:11:46.531Z,99843.22
2022-11-17T03:14:33.950Z,99841.03
2022-11-17T03:17:13.756Z,99845.28
2022-11-17T03:19:59.488Z,99835.19
2022-11-17T03:42:53.570Z,99835.97
2022-11-17T03:45:28.886Z,99835.25
2022-11-17T03:48:34.105Z,99838.78
2022-11-17T03:51:19.152Z,99832.16
2022-11-17T03:53:55.189Z,99837.19
2022-11-17T03:57:05.220Z,99845.31
2022-11-17T04:00:04.117Z,99843.13
2022-11-17T04:02:42.492Z,99848.84
2022-11-17T04:05:17.816Z,99853.56
2022-11-17T04:07:48.566Z,99864.94
2022-11-17T04:10:21.695Z,99867.81
2022-11-17T04:13:11.878Z,99867.63
2022-11-17T04:15:57.353Z,99862.53
2022-11-17T04:18:27.447Z,99865.69
2022-11-17T04:20:57.654Z,99860.59
2022-11-17T04:23:26.368Z,99865.31
2022-11-17T04:26:18.100Z,99875.22
2022-11-17T04:28:49.606Z,99876.50
2022-11-17T04:31:29.048Z,99878.06
2022-11-17T04:34:03.493Z,99876.50
2022-11-17T04:36:48.439Z,99883.75
2022-11-17T04:39:20.065Z,99884.41
2022-11-17T04:41:54.654Z,99896.13
2022-11-17T04:44:28.876Z,99905.91
2022-11-17T04:46:58.280Z,99903.88
2022-11-17T04:49:27.469Z,99899.34
2022-11-17T04:51:55.514Z,99896.75
2022-11-17T04:54:25.603Z,99894.38
2022-11-17T04:56:55.555Z,99889.84
2022-11-17T04:59:24.661Z,99892.88
2022-11-17T05:01:56.457Z,99890.03
2022-11-17T05:04:55.107Z,99893.34
2022-11-17T05:07:25.528Z,99897.69
2022-11-17T05:09:59.900Z,99902.50
2022-11-17T05:13:06.924Z,99903.94
2022-11-17T05:16:06.364Z,99922.91
2022-11-17T05:18:51.120Z,99923.91
2022-11-17T05:21:35.134Z,99913.66
2022-11-17T05:24:10.733Z,99924.41
2022-11-17T05:29:31.438Z,99913.38
2022-11-17T05:32:07.925Z,99922.75
2022-11-17T05:34:45.465Z,99931.16
2022-11-17T05:37:15.729Z,99931.22
2022-11-17T05:39:46.566Z,99923.78
2022-11-17T05:42:14.316Z,99924.84
2022-11-17T05:44:47.640Z,99926.22
2022-11-17T05:47:18.890Z,99922.53
2022-11-17T05:49:48.253Z,99929.31
2022-11-17T05:52:18.174Z,99918.81
2022-11-17T05:54:47.292Z,99920.16
2022-11-17T05:57:26.882Z,99922.03
2022-11-17T05:59:59.801Z,99919.28
2022-11-17T06:02:36.994Z,99921.13
2022-11-17T06:05:08.618Z,99929.06
2022-11-17T06:07:39.595Z,99921.34
2022-11-17T06:10:12.397Z,99922.06
2022-11-17T06:12:45.203Z,99911.22
2022-11-17T06:15:15.281Z,99920.75
2022-11-17T06:17:55.279Z,99922.50
2022-11-17T06:23:34.617Z,99931.00
2022-11-17T06:26:09.087Z,99933.88
2022-11-17T06:28:52.317Z,99930.84
2022-11-17T06:31:21.632Z,99921.13
2022-11-17T06:33:51.458Z,99920.31
2022-11-17T06:36:21.234Z,99923.28
2022-11-17T06:38:50.285Z,99923.16
2022-11-17T06:41:20.445Z,99915.22
2022-11-17T06:43:49.959Z,99921.94
2022-11-17T06:46:19.496Z,99922.81
2022-11-17T06:48:48.800Z,99928.31
2022-11-17T06:51:17.343Z,99924.00
2022-11-17T06:53:47.514Z,99926.78
2022-11-17T06:56:21.920Z,99914.75
2022-11-17T06:58:50.277Z,99909.03
2022-11-17T07:01:22.355Z,99916.25
2022-11-17T07:03:51.820Z,99913.06
2022-11-17T07:06:23.060Z,99922.06
2022-11-17T07:08:53.029Z,99917.91
2022-11-17T07:11:24.289Z,99918.75
2022-11-17T07:13:53.333Z,99921.13
2022-11-17T07:16:24.217Z,99928.16
2022-11-17T07:18:53.559Z,99931.03
2022-11-17T07:21:23.156Z,99933.16
2022-11-17T07:23:52.831Z,99940.81
2022-11-17T07:26:21.417Z,99943.22
2022-11-17T07:28:50.391Z,99939.41
2022-11-17T07:31:18.285Z,99939.88
2022-11-17T07:33:47.744Z,99926.00
2022-11-17T07:36:16.992Z,99917.91
2022-11-17T07:38:47.971Z,99936.47
2022-11-17T07:41:17.358Z,99932.47
2022-11-17T07:43:46.274Z,99927.31
2022-11-17T07:46:18.184Z,99930.28
2022-11-17T07:48:57.952Z,99928.13
2022-11-17T07:51:27.555Z,99924.25
2022-11-17T07:53:58.943Z,99922.88
2022-11-17T07:56:32.382Z,99923.00
2022-11-17T07:59:01.654Z,99924.66
2022-11-17T08:01:33.717Z,99924.38
2022-11-17T08:04:03.218Z,99926.91
2022-11-17T08:06:33.551Z,99927.22
2022-11-17T08:09:02.550Z,99918.34
2022-11-17T08:11:34.332Z,99923.91
2022-11-17T08:14:07.626Z,99921.47
2022-11-17T08:16:39.300Z,99917.06
2022-11-17T08:19:13.327Z,99919.91
2022-11-17T08:21:43.052Z,99917.06
2022-11-17T08:24:12.858Z,99910.03
2022-11-17T08:26:52.384Z,99906.19
2022-11-17T08:29:21.997Z,99908.03
2022-11-17T08:31:55.461Z,99909.75
2022-11-17T08:34:27.482Z,99917.06
2022-11-17T08:37:06.602Z,99909.69
2022-11-17T08:39:43.027Z,99913.13
2022-11-17T08:42:14.494Z,99904.91
2022-11-17T08:44:47.190Z,99905.72
2022-11-17T08:47:19.300Z,99910.94
2022-11-17T08:52:36.625Z,99895.13
2022-11-17T08:55:07.230Z,99905.63
2022-11-17T08:57:39.147Z,99906.63
2022-11-17T09:00:12.228Z,99905.72
2022-11-17T09:02:42.865Z,99905.00
2022-11-17T09:05:13.622Z,99908.75
2022-11-17T09:07:43.458Z,99906.63
2022-11-17T09:10:13.075Z,99912.56
2022-11-17T09:12:41.516Z,99918.56
2022-11-17T09:15:11.149Z,99899.53
2022-11-17T09:17:40.695Z,99908.50
2022-11-17T09:20:10.635Z,99913.88
2022-11-17T09:22:53.397Z,99914.75
2022-11-17T09:25:21.374Z,99905.41
2022-11-17T09:27:51.205Z,99905.63
2022-11-17T09:30:23.691Z,99902.94
2022-11-17T09:32:53.135Z,99896.34
2022-11-17T09:35:22.996Z,99895.06
2022-11-17T09:37:52.319Z,99915.47
2022-11-17T09:40:21.579Z,99902.50
2022-11-17T09:42:50.935Z,99900.09
2022-11-17T09:45:30.626Z,99904.19
2022-11-17T09:48:39.555Z,99902.66
2022-11-17T09:51:03.118Z,99905.72
2022-11-17T09:53:51.942Z,99901.84
2022-11-17T09:56:22.249Z,99901.09
2022-11-17T09:59:04.675Z,99901.72
2022-11-17T10:01:33.448Z,99909.41
2022-11-17T10:04:02.349Z,99903.50
2022-11-17T10:06:32.218Z,99900.53
2022-11-17T10:09:12.983Z,99908.97
2022-11-17T10:11:45.250Z,99912.91
2022-11-17T10:14:21.480Z,99911.13
2022-11-17T10:16:53.094Z,99916.59
2022-11-17T10:19:26.051Z,99913.66
2022-11-17T10:22:06.133Z,99919.66
2022-11-17T10:24:58.107Z,99924.91
2022-11-17T10:27:34.719Z,99924.28
2022-11-17T10:30:20.497Z,99914.34
2022-11-17T10:32:52.354Z,99921.81
2022-11-17T10:35:55.155Z,99919.53
2022-11-17T10:38:33.921Z,99923.63
2022-11-17T10:41:03.829Z,99910.63
2022-11-17T10:43:35.664Z,99909.31
2022-11-17T10:46:16.709Z,99917.16
2022-11-17T10:49:03.954Z,99915.25
2022-11-17T10:51:35.142Z,99911.00
2022-11-17T10:54:07.302Z,99906.13
2022-11-17T10:56:44.425Z,99912.28
2022-11-17T10:59:32.099Z,99909.22
2022-11-17T11:02:31.290Z,99909.50
2022-11-17T11:05:23.199Z,99898.34
2022-11-17T11:08:19.077Z,99893.72
2022-11-17T11:10:51.511Z,99895.19
2022-11-17T11:13:54.795Z,99909.84
2022-11-17T11:16:41.370Z,99905.91
2022-11-17T11:19:17.340Z,99910.25
2022-11-17T11:22:08.854Z,99903.06
2022-11-17T11:25:17.403Z,99901.66
2022-11-17T11:28:16.347Z,99900.56
2022-11-17T11:31:05.009Z,99898.22
2022-11-17T11:33:41.881Z,99900.25
2022-11-17T11:36:37.813Z,99896.13
2022-11-17T11:39:48.903Z,99890.66
2022-11-17T11:42:37.062Z,99900.84
2022-11-17T11:45:39.189Z,99885.69
2022-11-17T11:48:35.135Z,99881.91
2022-11-17T11:51:20.305Z,99886.38
2022-11-17T11:53:55.704Z,99884.81
2022-11-17T11:56:36.446Z,99877.81
2022-11-17T11:59:48.511Z,99876.94
2022-11-17T12:03:00.169Z,99866.75
2022-11-17T12:06:39.596Z,99865.09
2022-11-17T12:09:38.995Z,99860.75
2022-11-17T12:12:10.615Z,99863.06
2022-11-17T12:15:08.236Z,99870.81
2022-11-17T12:17:40.160Z,99882.63
2022-11-17T13:07:32.881Z,99857.97
2022-11-17T13:10:06.108Z,99855.06
2022-11-17T13:12:37.250Z,99851.31
2022-11-17T13:15:07.623Z,99851.28
2022-11-17T13:17:44.487Z,99846.16
2022-11-17T13:20:25.017Z,99849.69
2022-11-17T13:23:27.476Z,99853.78
2022-11-17T13:26:26.232Z,99857.59
2022-11-17T13:29:20.711Z,99851.38
2022-11-17T13:32:15.928Z,99843.19
2022-11-17T13:35:02.512Z,99839.22
2022-11-17T13:37:51.401Z,99824.06
2022-11-17T13:40:24.866Z,99818.16
2022-11-17T13:42:54.568Z,99822.06
2022-11-17T13:45:27.255Z,99812.03
2022-11-17T13:47:58.996Z,99802.63
2022-11-17T13:50:31.545Z,99802.84
2022-11-17T13:53:12.334Z,99794.38
2022-11-17T13:55:48.204Z,99787.19
2022-11-17T13:58:51.223Z,99788.09
2022-11-17T14:01:37.013Z,99786.47
2022-11-17T14:04:19.781Z,99793.88
2022-11-17T14:07:13.217Z,99786.91
2022-11-17T14:09:41.945Z,99779.88
2022-11-17T14:12:11.654Z,99784.22
2022-11-17T14:14:44.808Z,99785.34
2022-11-17T14:17:24.890Z,99788.94
2022-11-17T14:19:54.008Z,99788.25
2022-11-17T14:22:31.953Z,99775.44
2022-11-17T14:25:01.759Z,99769.72
2022-11-17T14:27:33.370Z,99784.78
2022-11-17T14:30:02.075Z,99772.53
2022-11-17T14:32:34.907Z,99770.25
2022-11-17T14:35:07.410Z,99764.78
2022-11-17T14:37:37.706Z,99774.31
2022-11-17T14:40:18.375Z,99767.66
2022-11-17T14:42:47.043Z,99767.22
2022-11-17T14:45:17.096Z,99772.53
2022-11-17T14:47:50.863Z,99766.00
2022-11-17T14:50:32.342Z,99758.94
2022-11-17T14:53:03.592Z,99755.06
2022-11-17T14:55:40.057Z,99746.88
2022-11-17T14:58:07.950Z,99741.22
2022-11-17T15:00:38.288Z,99727.06
2022-11-17T15:03:11.559Z,99740.31
2022-11-17T15:05:50.645Z,99727.09
2022-11-17T15:08:21.330Z,99719.19
2022-11-17T15:10:51.553Z,99718.69
2022-11-17T15:13:20.966Z,99707.38
2022-11-17T15:16:07.411Z,99696.47
2022-11-17T15:18:41.320Z,99702.22
2022-11-17T15:21:15.542Z,99700.63
2022-11-17T15:23:53.945Z,99694.78
2022-11-17T15:26:24.136Z,99694.72
2022-11-17T15:28:53.001Z,99689.81
2022-11-17T15:31:26.155Z,99680.41
2022-11-17T15:33:56.962Z,99676.03
2022-11-17T15:36:33.308Z,99662.81
2022-11-17T15:39:07.356Z,99658.88
2022-11-17T15:41:41.588Z,99644.56
2022-11-17T15:44:12.912Z,99644.34
2022-11-17T15:46:48.820Z,99652.88
2022-11-17T15:49:26.481Z,99642.31
2022-11-17T15:51:55.899Z,99644.84
2022-11-17T15:54:25.530Z,99643.72
2022-11-17T15:56:58.315Z,99643.91
2022-11-17T15:59:30.546Z,99647.31
2022-11-17T16:02:15.278Z,99653.91
2022-11-17T16:04:47.701Z,99647.69
2022-11-17T16:07:38.545Z,99643.91
2022-11-17T16:10:22.301Z,99630.25
2022-11-17T16:12:51.610Z,99625.06
2022-11-17T16:15:33.125Z,99624.22
2022-11-17T16:18:01.936Z,99619.09
2022-11-17T16:23:29.108Z,99615.16
2022-11-17T16:26:02.726Z,99616.06
2022-11-17T16:28:31.820Z,99604.63
2022-11-17T16:31:17.983Z,99600.09
2022-11-17T16:33:49.493Z,99595.63
2022-11-17T16:36:21.857Z,99591.16
2022-11-17T16:39:01.235Z,99585.53
2022-11-17T16:41:34.126Z,99582.38
2022-11-17T16:46:51.073Z,99561.34
2022-11-17T16:49:27.846Z,99562.25
2022-11-17T16:51:59.583Z,99560.06
2022-11-17T16:54:27.972Z,99551.47
2022-11-17T16:59:47.571Z,99546.03
2022-11-17T17:02:16.765Z,99538.25
2022-11-17T17:04:47.216Z,99537.06
2022-11-17T17:07:16.953Z,99545.75
2022-11-17T17:09:46.206Z,99541.19
2022-11-17T17:12:16.474Z,99538.41
2022-11-17T17:14:46.344Z,99522.19
2022-11-17T17:17:18.726Z,99513.59
2022-11-17T17:19:52.475Z,99497.56
2022-11-17T17:22:22.297Z,99491.44
2022-11-17T17:24:52.055Z,99486.47
2022-11-17T17:27:21.228Z,99474.41
2022-11-17T17:29:54.842Z,99473.25
2022-11-17T17:32:23.017Z,99466.22
2022-11-17T17:34:54.631Z,99460.88
2022-11-17T17:37:24.017Z,99466.69
2022-11-17T17:39:54.725Z,99467.88
2022-11-17T17:42:23.971Z,99469.09
2022-11-17T17:44:53.822Z,99453.44
2022-11-17T17:47:23.630Z,99447.25
2022-11-17T17:49:53.889Z,99435.75
2022-11-17T17:52:23.020Z,99422.75
2022-11-17T17:54:54.472Z,99420.84
2022-11-17T17:57:23.908Z,99417.53
2022-11-17T17:59:53.633Z,99418.81
2022-11-17T18:02:23.559Z,99420.84
2022-11-17T18:04:59.742Z,99396.75
2022-11-17T18:10:17.909Z,99396.13
2022-11-17T18:12:47.349Z,99400.31
2022-11-17T18:15:19.100Z,99392.03
2022-11-17T18:17:48.275Z,99388.34
2022-11-17T18:20:22.523Z,99377.81
2022-11-17T18:22:51.839Z,99372.56
2022-11-17T18:25:19.880Z,99381.19
2022-11-17T18:27:49.255Z,99373.78
2022-11-17T18:30:18.950Z,99369.06
2022-11-17T18:32:48.005Z,99349.84
2022-11-17T18:35:17.706Z,99345.72
2022-11-17T18:37:46.877Z,99337.66
2022-11-17T18:40:16.794Z,99349.19
2022-11-17T18:42:46.483Z,99339.41
2022-11-17T18:45:15.694Z,99331.47
2022-11-17T18:47:45.094Z,99340.97
2022-11-17T18:50:16.399Z,99336.00
2022-11-17T18:52:45.955Z,99331.00
2022-11-17T18:55:15.204Z,99341.41
2022-11-17T18:57:45.143Z,99328.63
2022-11-17T19:00:16.316Z,99332.13
2022-11-17T19:02:46.777Z,99337.56
2022-11-17T19:05:15.910Z,99323.44
2022-11-17T19:07:45.699Z,99315.78
2022-11-17T19:10:16.377Z,99295.06
2022-11-17T19:12:44.914Z,99277.66
2022-11-17T19:15:13.938Z,99271.28
2022-11-17T19:17:44.832Z,99264.44
2022-11-17T19:20:27.762Z,99258.72
2022-11-17T19:22:58.705Z,99265.22
2022-11-17T19:25:28.890Z,99262.31
2022-11-17T19:28:02.289Z,99253.22
2022-11-17T19:30:32.319Z,99243.66
2022-11-17T19:33:04.501Z,99241.31
2022-11-17T19:35:37.895Z,99230.91
2022-11-17T19:38:07.646Z,99217.81
2022-11-17T19:40:37.256Z,99209.56
2022-11-17T19:43:06.119Z,99215.13
2022-11-17T19:45:35.345Z,99205.47
2022-11-17T19:48:04.849Z,99196.78
2022-11-17T19:50:34.091Z,99189.34
2022-11-17T19:53:04.395Z,99187.78
2022-11-17T19:55:34.754Z,99197.66
2022-11-17T19:58:08.278Z,99188.94
2022-11-17T20:00:37.282Z,99191.09
2022-11-17T20:03:09.229Z,99185.75
2022-11-17T20:05:39.915Z,99180.03
2022-11-17T20:08:11.176Z,99194.41
2022-11-17T20:10:40.379Z,99201.81
2022-11-17T20:13:08.834Z,99191.00
2022-11-17T20:15:36.850Z,99183.84
2022-11-17T20:18:06.996Z,99176.22
2022-11-17T20:20:36.938Z,99174.19
2022-11-17T20:23:08.911Z,99191.78
2022-11-17T20:25:39.084Z,99194.81
2022-11-17T20:28:08.958Z,99202.84
2022-11-17T20:30:42.951Z,99202.84
2022-11-17T20:33:13.284Z,99178.59
2022-11-17T20:35:43.325Z,99154.28
2022-11-17T20:38:15.653Z,99132.16
2022-11-17T20:40:43.820Z,99116.16
2022-11-17T20:43:12.682Z,99119.78
2022-11-17T20:45:40.820Z,99120.78
2022-11-17T20:48:09.734Z,99128.59
2022-11-17T20:50:38.726Z,99118.78
2022-11-17T20:53:06.816Z,99132.03
2022-11-17T20:55:37.319Z,99134.50
2022-11-17T20:58:08.417Z,99128.25
2022-11-17T21:00:37.361Z,99121.50
2022-11-17T21:03:08.486Z,99117.69
2022-11-17T21:05:40.258Z,99128.16
2022-11-17T21:08:13.259Z,99128.44
2022-11-17T21:10:42.327Z,99133.34
2022-11-17T21:13:13.824Z,99138.09
2022-11-17T21:15:42.062Z,99141.84
2022-11-17T21:18:40.612Z,99159.66
2022-11-17T21:21:09.289Z,99163.66
2022-11-17T21:23:39.442Z,99176.75
2022-11-17T21:26:18.594Z,99180.47
2022-11-17T21:28:49.565Z,99168.56
2022-11-17T21:31:29.409Z,99170.47
2022-11-17T21:34:07.240Z,99173.06
2022-11-17T21:36:36.209Z,99184.19
2022-11-17T21:39:07.431Z,99190.03
2022-11-17T21:41:35.927Z,99191.22
2022-11-17T21:44:05.362Z,99200.38
2022-11-17T21:46:36.686Z,99200.03
2022-11-17T21:49:07.417Z,99210.63
2022-11-17T21:51:39.354Z,99223.69
2022-11-17T21:54:10.165Z,99225.00
2022-11-17T21:56:43.961Z,99218.09
2022-11-17T21:59:14.215Z,99206.09
2022-11-17T22:01:45.334Z,99217.44
2022-11-17T22:04:16.047Z,99215.38
2022-11-17T22:06:45.782Z,99229.88
2022-11-17T22:09:17.031Z,99229.38
2022-11-17T22:11:46.461Z,99232.09
2022-11-17T22:14:18.249Z,99228.00
2022-11-17T22:16:53.376Z,99240.75
2022-11-17T22:19:27.182Z,99229.44
2022-11-17T22:21:56.424Z,99231.78
2022-11-17T22:24:24.937Z,99235.63
2022-11-17T22:26:53.676Z,99227.13
2022-11-17T22:29:22.918Z,99235.41
2022-11-17T22:31:53.294Z,99231.94
2022-11-17T22:34:21.990Z,99225.06
2022-11-17T22:36:53.326Z,99240.88
2022-11-17T22:39:22.662Z,99244.38
2022-11-17T22:41:52.235Z,99244.63
2022-11-17T22:44:21.795Z,99260.25
2022-11-17T22:46:53.432Z,99263.09
2022-11-17T22:49:21.969Z,99266.63
2022-11-17T22:52:10.480Z,99280.81
2022-11-17T22:54:39.834Z,99293.56
2022-11-17T22:57:08.850Z,99281.72
2022-11-17T22:59:37.933Z,99294.31
2022-11-17T23:02:06.959Z,99299.41
2022-11-17T23:04:36.824Z,99315.63
2022-11-17T23:07:07.536Z,99311.53
2022-11-17T23:09:37.823Z,99320.25
2022-11-17T23:12:08.429Z,99335.16
2022-11-17T23:14:37.532Z,99349.53
2022-11-17T23:17:07.073Z,99360.28
2022-11-17T23:19:35.885Z,99356.63
2022-11-17T23:22:04.658Z,99362.09
2022-11-17T23:24:33.752Z,99366.59
2022-11-17T23:27:03.021Z,99375.63
2022-11-17T23:29:34.416Z,99398.03
2022-11-17T23:32:03.091Z,99412.44
2022-11-17T23:34:33.373Z,99418.06
2022-11-17T23:37:03.961Z,99429.41
2022-11-17T23:39:33.628Z,99422.91
2022-11-17T23:42:01.868Z,99432.03
2022-11-17T23:44:33.311Z,99420.81
2022-11-17T23:47:01.798Z,99422.56
2022-11-17T23:49:31.673Z,99422.72
2022-11-17T23:52:01.090Z,99419.09
2022-11-17T23:54:29.985Z,99442.75
2022-11-17T23:57:03.117Z,99448.63
2022-11-17T23:59:32.480Z,99455.06
